Time;durP1;ratioP1;P1;durP2;ratioP2;P2;SDS_P1;SDS_P2;PMS_P1;PMS_P2;Temp;Humidity;BMP_temperature;BMP_pressure;BME280_temperature;BME280_humidity;BME280_pressure;Samples;Min_cycle;Max_cycle;Signal;HPM_P1;HPM_P2
2022/01/11 00:02:16;;;;;;;56.40;20.05;;;;;;;;;;4997625;28;93220;-70
2022/01/11 00:04:43;;;;;;;51.88;22.08;;;;;;;;;;4996753;28;92426;-69
2022/01/11 00:07:13;;;;;;;83.13;21.77;;;;;;;;;;4997207;28;92372;-69
2022/01/11 00:09:42;;;;;;;63.92;22.30;;;;;;;;;;4995243;28;96281;-70
2022/01/11 00:12:10;;;;;;;67.93;22.27;;;;;;;;;;4997095;28;92414;-70
2022/01/11 00:14:37;;;;;;;51.78;20.60;;;;;;;;;;4997002;28;93533;-70
2022/01/11 00:17:03;;;;;;;65.60;21.40;;;;;;;;;;4996917;28;93421;-70
2022/01/11 00:19:30;;;;;;;68.10;21.17;;;;;;;;;;4999489;28;93011;-70
2022/01/11 00:21:58;;;;;;;64.85;20.88;;;;;;;;;;4996607;28;93479;-70
2022/01/11 00:24:28;;;;;;;95.05;22.08;;;;;;;;;;4996796;28;93177;-70
2022/01/11 00:26:55;;;;;;;73.30;22.10;;;;;;;;;;4997152;28;93625;-70
2022/01/11 00:29:22;;;;;;;156.40;22.10;;;;;;;;;;4995435;28;94757;-70
2022/01/11 00:31:49;;;;;;;95.25;21.38;;;;;;;;;;4994970;28;92643;-70
2022/01/11 00:34:19;;;;;;;126.13;22.60;;;;;;;;;;4993907;28;95944;-71
2022/01/11 00:36:46;;;;;;;129.10;21.60;;;;;;;;;;4995189;28;94019;-70
2022/01/11 00:39:13;;;;;;;103.55;22.25;;;;;;;;;;4996691;28;92261;-70
2022/01/11 00:41:40;;;;;;;100.97;22.55;;;;;;;;;;4998247;28;95515;-72
2022/01/11 00:44:07;;;;;;;85.05;22.27;;;;;;;;;;4996312;28;92141;-71
2022/01/11 00:46:33;;;;;;;77.88;23.48;;;;;;;;;;4994782;28;95196;-71
2022/01/11 00:49:00;;;;;;;91.80;24.05;;;;;;;;;;4996410;28;93371;-71
2022/01/11 00:51:27;;;;;;;98.82;22.10;;;;;;;;;;4995664;28;92037;-71
2022/01/11 00:53:54;;;;;;;80.85;21.60;;;;;;;;;;4996449;28;92232;-73
2022/01/11 00:56:20;;;;;;;91.60;23.70;;;;;;;;;;4995075;28;94146;-71
2022/01/11 00:58:47;;;;;;;95.63;23.73;;;;;;;;;;4993434;28;94791;-71
2022/01/11 01:01:14;;;;;;;98.93;23.65;;;;;;;;;;4995068;28;98345;-71
2022/01/11 01:03:40;;;;;;;118.03;24.48;;;;;;;;;;4999374;28;92596;-71
2022/01/11 01:06:07;;;;;;;128.18;24.77;;;;;;;;;;4996175;28;93738;-71
2022/01/11 01:08:33;;;;;;;115.85;25.10;;;;;;;;;;4998329;28;95799;-71
2022/01/11 01:11:00;;;;;;;82.97;24.20;;;;;;;;;;4998592;28;93288;-71
2022/01/11 01:13:31;;;;;;;80.13;23.87;;;;;;;;;;4998224;28;95380;-71
2022/01/11 01:16:02;;;;;;;76.70;24.38;;;;;;;;;;4999005;28;94497;-71
2022/01/11 01:18:48;;;;;;;79.60;24.90;;;;;;;;;;4955680;28;92595;-71
2022/01/11 01:21:15;;;;;;;80.07;25.90;;;;;;;;;;4998555;28;94857;-71
2022/01/11 01:23:45;;;;;;;72.07;24.08;;;;;;;;;;4996829;28;98434;-71
2022/01/11 01:26:11;;;;;;;63.38;24.02;;;;;;;;;;5002029;28;92345;-71
2022/01/11 01:28:38;;;;;;;91.45;25.92;;;;;;;;;;4998178;28;96172;-71
2022/01/11 01:31:04;;;;;;;67.15;24.75;;;;;;;;;;4998233;28;92295;-71
2022/01/11 01:33:32;;;;;;;202.98;28.58;;;;;;;;;;4998141;28;95959;-71
2022/01/11 01:36:02;;;;;;;111.70;27.10;;;;;;;;;;4999239;28;93791;-71
2022/01/11 01:38:30;;;;;;;62.75;22.63;;;;;;;;;;4999334;28;92807;-71
2022/01/11 01:41:01;;;;;;;63.35;26.13;;;;;;;;;;4998470;28;96758;-70
2022/01/11 01:43:28;;;;;;;65.45;23.88;;;;;;;;;;4999067;28;93910;-71
2022/01/11 01:45:58;;;;;;;89.47;26.15;;;;;;;;;;5001208;28;93151;-71
2022/01/11 01:48:25;;;;;;;99.28;23.83;;;;;;;;;;4996260;28;98389;-71
2022/01/11 01:50:52;;;;;;;86.75;25.27;;;;;;;;;;4998300;28;93035;-71
2022/01/11 01:53:18;;;;;;;85.82;24.17;;;;;;;;;;4997539;28;96044;-71
2022/01/11 01:55:47;;;;;;;78.47;24.75;;;;;;;;;;4998975;28;93365;-71
2022/01/11 01:58:14;;;;;;;69.22;24.58;;;;;;;;;;4997844;28;92972;-71
2022/01/11 02:00:44;;;;;;;73.40;26.13;;;;;;;;;;5014290;28;96585;-71
2022/01/11 02:03:12;;;;;;;75.72;25.13;;;;;;;;;;4997644;28;95241;-71
2022/01/11 02:05:40;;;;;;;89.63;24.40;;;;;;;;;;5014412;28;93045;-71
2022/01/11 02:08:07;;;;;;;72.15;25.58;;;;;;;;;;5017427;28;95108;-71
2022/01/11 02:10:34;;;;;;;54.33;24.60;;;;;;;;;;4998995;28;92298;-71
2022/01/11 02:13:00;;;;;;;58.83;23.73;;;;;;;;;;4996128;28;95560;-71
2022/01/11 02:15:27;;;;;;;56.05;23.27;;;;;;;;;;4997469;28;95123;-71
2022/01/11 02:17:54;;;;;;;51.88;22.88;;;;;;;;;;5013524;28;93872;-70
2022/01/11 02:20:21;;;;;;;53.55;23.98;;;;;;;;;;4996884;28;96150;-71
2022/01/11 02:22:47;;;;;;;55.45;23.80;;;;;;;;;;4998668;28;93621;-71
2022/01/11 02:25:14;;;;;;;46.42;22.00;;;;;;;;;;4980872;28;92400;-71
2022/01/11 02:27:40;;;;;;;43.50;20.50;;;;;;;;;;5014176;28;94477;-71
2022/01/11 02:30:08;;;;;;;47.95;20.13;;;;;;;;;;5000817;28;94653;-71
2022/01/11 02:32:46;;;;;;;50.70;23.00;;;;;;;;;;4997318;28;94837;-71
2022/01/11 02:35:13;;;;;;;54.90;23.05;;;;;;;;;;5013733;28;96197;-71
2022/01/11 02:37:41;;;;;;;51.78;22.25;;;;;;;;;;4995359;28;94766;-71
2022/01/11 02:40:13;;;;;;;51.33;22.25;;;;;;;;;;4997251;28;98615;-71
2022/01/11 02:42:40;;;;;;;50.08;22.25;;;;;;;;;;4996862;28;95752;-71
2022/01/11 02:45:13;;;;;;;48.78;22.05;;;;;;;;;;4997036;28;92145;-71
2022/01/11 02:47:39;;;;;;;50.45;21.77;;;;;;;;;;5013773;28;96017;-71
2022/01/11 02:50:06;;;;;;;45.72;20.23;;;;;;;;;;4997150;28;95675;-71
2022/01/11 02:52:39;;;;;;;50.92;20.35;;;;;;;;;;4999996;28;92484;-71
2022/01/11 02:55:10;;;;;;;49.60;21.90;;;;;;;;;;5013907;28;94443;-71
2022/01/11 02:57:38;;;;;;;58.78;22.13;;;;;;;;;;5013585;28;92625;-71
2022/01/11 03:00:17;;;;;;;46.25;21.25;;;;;;;;;;4996755;28;95562;-71
2022/01/11 03:02:44;;;;;;;46.97;18.45;;;;;;;;;;4995125;28;98067;-71
2022/01/11 03:05:13;;;;;;;47.88;21.50;;;;;;;;;;4996730;28;92560;-71
2022/01/11 03:07:41;;;;;;;50.45;22.02;;;;;;;;;;4996775;28;96450;-71
2022/01/11 03:10:20;;;;;;;46.83;20.73;;;;;;;;;;5013266;28;95582;-71
2022/01/11 03:12:50;;;;;;;;;;;;;;;;;;4997048;28;92983;-70
2022/01/11 03:15:16;;;;;;;46.70;20.42;;;;;;;;;;4999561;28;122696;-71
2022/01/11 03:17:47;;;;;;;46.10;21.00;;;;;;;;;;5013004;28;92414;-71
2022/01/11 03:20:13;;;;;;;47.60;21.02;;;;;;;;;;4996881;28;94311;-71
2022/01/11 03:22:40;;;;;;;46.88;21.00;;;;;;;;;;4997347;28;93627;-71
2022/01/11 03:25:09;;;;;;;43.58;20.20;;;;;;;;;;4978952;28;93367;-71
2022/01/11 03:27:38;;;;;;;49.33;21.83;;;;;;;;;;5011589;28;96156;-71
2022/01/11 03:30:06;;;;;;;47.92;21.13;;;;;;;;;;4995523;28;94837;-71
2022/01/11 03:32:36;;;;;;;58.10;22.88;;;;;;;;;;5012904;28;92431;-71
2022/01/11 03:35:11;;;;;;;51.53;24.30;;;;;;;;;;4999134;28;93969;-71
2022/01/11 03:37:40;;;;;;;55.50;21.33;;;;;;;;;;4995688;28;93282;-71
2022/01/11 03:40:09;;;;;;;59.95;22.98;;;;;;;;;;4997614;28;93193;-71
2022/01/11 03:42:35;;;;;;;54.97;23.38;;;;;;;;;;5012517;28;96478;-71
2022/01/11 03:45:03;;;;;;;51.38;21.63;;;;;;;;;;4996680;28;92685;-71
2022/01/11 03:47:32;;;;;;;51.60;21.08;;;;;;;;;;5012904;28;94909;-71
2022/01/11 03:49:58;;;;;;;48.63;21.70;;;;;;;;;;4995823;28;95829;-71
2022/01/11 03:52:26;;;;;;;43.70;20.08;;;;;;;;;;4994207;28;94771;-71
2022/01/11 03:57:30;;;;;;;52.45;21.60;;;;;;;;;;4998977;28;96340;-71
2022/01/11 03:59:57;;;;;;;53.92;22.63;;;;;;;;;;5012618;28;95520;-71
2022/01/11 04:02:24;;;;;;;51.17;20.58;;;;;;;;;;4996941;28;93407;-71
2022/01/11 04:04:54;;;;;;;50.28;20.70;;;;;;;;;;5012372;28;92405;-71
2022/01/11 04:07:21;;;;;;;51.65;23.50;;;;;;;;;;4995976;28;94359;-71
2022/01/11 04:09:48;;;;;;;50.58;22.10;;;;;;;;;;4997358;28;92652;-71
2022/01/11 04:12:15;;;;;;;58.15;21.88;;;;;;;;;;4995612;28;92850;-71
2022/01/11 04:14:42;;;;;;;60.20;22.55;;;;;;;;;;5012361;28;95666;-71
2022/01/11 04:17:09;;;;;;;53.13;21.52;;;;;;;;;;4993339;28;96922;-71
2022/01/11 04:19:35;;;;;;;52.58;23.15;;;;;;;;;;4998578;28;93683;-71
2022/01/11 04:22:02;;;;;;;59.53;23.77;;;;;;;;;;5012640;28;94562;-71
2022/01/11 04:24:29;;;;;;;62.88;24.13;;;;;;;;;;4995606;28;92725;-71
2022/01/11 04:26:55;;;;;;;58.78;22.98;;;;;;;;;;5012199;28;95533;-71
2022/01/11 04:29:22;;;;;;;55.63;22.58;;;;;;;;;;4995365;28;94457;-71
2022/01/11 04:31:49;;;;;;;59.75;22.25;;;;;;;;;;4996196;28;92255;-71
2022/01/11 04:34:18;;;;;;;56.00;22.88;;;;;;;;;;4995838;28;95233;-71
2022/01/11 04:36:45;;;;;;;57.47;23.88;;;;;;;;;;5012168;28;95735;-71
2022/01/11 04:39:12;;;;;;;55.47;21.73;;;;;;;;;;4996488;28;92340;-71
2022/01/11 04:41:39;;;;;;;63.83;23.27;;;;;;;;;;4996819;28;96341;-71
2022/01/11 04:44:06;;;;;;;54.08;22.98;;;;;;;;;;5011761;28;92639;-71
2022/01/11 04:46:34;;;;;;;59.00;23.38;;;;;;;;;;4995152;28;95719;-73
2022/01/11 04:49:00;;;;;;;65.93;25.23;;;;;;;;;;4995199;28;95919;-71
2022/01/11 04:51:28;;;;;;;70.18;24.83;;;;;;;;;;4995325;28;93030;-71
2022/01/11 04:53:55;;;;;;;62.75;24.48;;;;;;;;;;4995011;28;94649;-71
2022/01/11 04:56:23;;;;;;;62.03;24.40;;;;;;;;;;4994830;28;95972;-71
2022/01/11 04:58:49;;;;;;;65.00;25.13;;;;;;;;;;5011957;28;91598;-71
2022/01/11 05:01:17;;;;;;;63.72;24.80;;;;;;;;;;4995101;28;95683;-71
2022/01/11 05:03:45;;;;;;;64.45;24.20;;;;;;;;;;5014784;28;96139;-71
2022/01/11 05:06:12;;;;;;;60.38;23.52;;;;;;;;;;4993498;28;95553;-71
2022/01/11 05:08:38;;;;;;;57.65;23.63;;;;;;;;;;5011482;28;95649;-71
2022/01/11 05:11:07;;;;;;;59.10;23.58;;;;;;;;;;5011495;28;92462;-71
2022/01/11 05:13:34;;;;;;;64.22;25.95;;;;;;;;;;4994518;28;95531;-71
2022/01/11 05:16:08;;;;;;;67.32;25.65;;;;;;;;;;5011416;28;96280;-71
2022/01/11 05:18:38;;;;;;;71.70;25.88;;;;;;;;;;4994670;28;93418;-71
2022/01/11 05:21:04;;;;;;;63.45;22.75;;;;;;;;;;5011431;28;96019;-70
2022/01/11 05:23:31;;;;;;;64.05;23.23;;;;;;;;;;5011883;28;94683;-71
2022/01/11 05:25:57;;;;;;;61.90;24.60;;;;;;;;;;4997828;28;92884;-71
2022/01/11 05:28:24;;;;;;;64.93;24.45;;;;;;;;;;4994663;28;96112;-71
2022/01/11 05:30:51;;;;;;;59.33;23.50;;;;;;;;;;4992928;28;94767;-71
2022/01/11 05:33:18;;;;;;;62.53;23.77;;;;;;;;;;4995768;28;95664;-71
2022/01/11 05:35:46;;;;;;;68.13;25.15;;;;;;;;;;4994599;28;95493;-71
2022/01/11 05:38:12;;;;;;;68.95;23.88;;;;;;;;;;4994580;28;92958;-71
2022/01/11 05:40:39;;;;;;;67.45;26.30;;;;;;;;;;4995675;28;93393;-71
2022/01/11 05:43:09;;;;;;;65.35;24.15;;;;;;;;;;5011086;28;95359;-71
2022/01/11 05:45:35;;;;;;;66.35;23.70;;;;;;;;;;4997634;28;92462;-71
2022/01/11 05:48:03;;;;;;;60.20;23.58;;;;;;;;;;4994858;28;95469;-71
2022/01/11 05:50:35;;;;;;;69.05;25.75;;;;;;;;;;5011090;28;92427;-71
2022/01/11 05:53:01;;;;;;;73.40;26.60;;;;;;;;;;4995187;28;96824;-71
2022/01/11 05:55:28;;;;;;;60.22;23.98;;;;;;;;;;4996028;28;98347;-71
2022/01/11 05:57:55;;;;;;;69.18;24.17;;;;;;;;;;4997863;28;92605;-71
2022/01/11 06:00:21;;;;;;;70.30;25.88;;;;;;;;;;5014435;28;95764;-71
2022/01/11 06:02:52;;;;;;;71.40;24.55;;;;;;;;;;4997506;28;95668;-71
2022/01/11 06:05:31;;;;;;;70.88;26.30;;;;;;;;;;5014247;28;92411;-72
2022/01/11 06:07:58;;;;;;;63.08;24.95;;;;;;;;;;5000261;28;95626;-70
2022/01/11 06:10:25;;;;;;;63.92;24.35;;;;;;;;;;5014470;28;92643;-70
2022/01/11 06:12:51;;;;;;;70.07;25.00;;;;;;;;;;4998028;28;94820;-71
2022/01/11 06:15:17;;;;;;;71.68;26.35;;;;;;;;;;5014221;28;96355;-71
2022/01/11 06:17:44;;;;;;;69.00;25.40;;;;;;;;;;5013895;28;92419;-70
2022/01/11 06:20:11;;;;;;;64.43;23.45;;;;;;;;;;5012306;28;94819;-70
2022/01/11 06:22:38;;;;;;;56.88;20.58;;;;;;;;;;4997199;28;96497;-72
2022/01/11 06:25:05;;;;;;;69.03;24.73;;;;;;;;;;4998586;28;92367;-71
2022/01/11 06:27:32;;;;;;;65.50;26.73;;;;;;;;;;4997340;28;95792;-71
2022/01/11 06:29:59;;;;;;;62.35;24.85;;;;;;;;;;5000418;28;94820;-70
2022/01/11 06:32:25;;;;;;;64.35;23.42;;;;;;;;;;5013938;28;95182;-70
2022/01/11 06:34:53;;;;;;;55.20;23.27;;;;;;;;;;5013491;28;96162;-70
2022/01/11 06:37:22;;;;;;;59.65;23.27;;;;;;;;;;5014433;28;92693;-71
2022/01/11 06:39:50;;;;;;;60.63;24.92;;;;;;;;;;5013836;28;94803;-71
2022/01/11 06:42:17;;;;;;;66.60;24.85;;;;;;;;;;4997116;28;95740;-71
2022/01/11 06:44:43;;;;;;;64.40;25.27;;;;;;;;;;5012129;28;94714;-71
2022/01/11 06:47:11;;;;;;;61.08;24.40;;;;;;;;;;4996905;28;98407;-71
2022/01/11 06:49:38;;;;;;;66.07;25.20;;;;;;;;;;5013716;28;95906;-71
2022/01/11 06:52:06;;;;;;;68.30;27.05;;;;;;;;;;5000199;28;92745;-70
2022/01/11 06:54:36;;;;;;;66.47;25.60;;;;;;;;;;4997007;28;95593;-71
2022/01/11 06:57:03;;;;;;;66.97;24.75;;;;;;;;;;5013323;28;93176;-71
2022/01/11 06:59:29;;;;;;;60.35;25.17;;;;;;;;;;4980323;28;95913;-71
2022/01/11 07:02:01;;;;;;;56.97;23.30;;;;;;;;;;5013662;28;94810;-71
2022/01/11 07:04:37;;;;;;;68.10;25.58;;;;;;;;;;4995757;28;92483;-71
2022/01/11 07:07:07;;;;;;;62.15;25.15;;;;;;;;;;4996633;28;95649;-69
2022/01/11 07:09:34;;;;;;;67.55;26.70;;;;;;;;;;5011590;28;98596;-72
2022/01/11 07:12:02;;;;;;;61.28;26.80;;;;;;;;;;4996722;28;92932;-71
2022/01/11 07:14:29;;;;;;;59.28;24.70;;;;;;;;;;4999327;28;94895;-72
2022/01/11 07:16:56;;;;;;;64.15;25.58;;;;;;;;;;4996526;28;92612;-72
2022/01/11 07:19:23;;;;;;;67.78;26.58;;;;;;;;;;4996265;28;95386;-71
2022/01/11 07:21:53;;;;;;;64.60;25.15;;;;;;;;;;4997879;28;93540;-72
2022/01/11 07:24:21;;;;;;;70.03;26.90;;;;;;;;;;5013275;28;92428;-72
2022/01/11 07:26:48;;;;;;;63.65;26.55;;;;;;;;;;5013642;28;95454;-71
2022/01/11 07:29:16;;;;;;;65.75;26.52;;;;;;;;;;4995839;28;94856;-71
2022/01/11 07:31:44;;;;;;;68.80;27.33;;;;;;;;;;4996523;28;92388;-72
2022/01/11 07:34:13;;;;;;;69.10;25.73;;;;;;;;;;5011264;28;95863;-72
2022/01/11 07:36:42;;;;;;;74.72;27.13;;;;;;;;;;5015900;28;95395;-72
2022/01/11 07:39:12;;;;;;;66.95;27.40;;;;;;;;;;4996145;28;96170;-70
2022/01/11 07:41:40;;;;;;;69.00;25.25;;;;;;;;;;4995725;28;96186;-71
2022/01/11 07:44:11;;;;;;;65.45;25.83;;;;;;;;;;4996101;28;92484;-72
2022/01/11 07:46:42;;;;;;;58.33;23.97;;;;;;;;;;4996042;28;96207;-71
2022/01/11 07:49:15;;;;;;;65.40;24.58;;;;;;;;;;5012542;28;95399;-71
2022/01/11 07:51:42;;;;;;;53.95;24.08;;;;;;;;;;5013341;28;92439;-72
2022/01/11 07:54:09;;;;;;;48.50;21.80;;;;;;;;;;4995541;28;93718;-71
2022/01/11 07:56:37;;;;;;;56.17;24.42;;;;;;;;;;4999099;28;95117;-72
2022/01/11 07:59:04;;;;;;;55.35;23.52;;;;;;;;;;4994368;28;95849;-71
2022/01/11 08:01:35;;;;;;;56.97;24.83;;;;;;;;;;4995780;28;95815;-72
2022/01/11 08:04:03;;;;;;;63.80;25.42;;;;;;;;;;5012570;28;93007;-72
2022/01/11 08:06:34;;;;;;;53.03;23.92;;;;;;;;;;5012309;28;95852;-73
2022/01/11 08:09:10;;;;;;;56.00;24.10;;;;;;;;;;4995543;28;95731;-71
2022/01/11 08:11:36;;;;;;;51.53;22.20;;;;;;;;;;4995865;28;92493;-71
2022/01/11 08:14:04;;;;;;;49.92;21.75;;;;;;;;;;4995691;28;95877;-71
2022/01/11 08:16:32;;;;;;;51.20;21.95;;;;;;;;;;5012311;28;95180;-71
2022/01/11 08:19:03;;;;;;;50.13;23.15;;;;;;;;;;4998247;28;93093;-72
2022/01/11 08:21:30;;;;;;;54.72;21.60;;;;;;;;;;5012278;28;94404;-72
2022/01/11 08:23:57;;;;;;;44.92;21.63;;;;;;;;;;4994121;28;94690;-71
2022/01/11 08:26:24;;;;;;;48.28;22.75;;;;;;;;;;4995385;28;97662;-72
2022/01/11 08:28:51;;;;;;;54.92;23.80;;;;;;;;;;4996547;28;92464;-72
2022/01/11 08:31:20;;;;;;;51.55;22.58;;;;;;;;;;4978746;28;92276;-72
2022/01/11 08:33:50;;;;;;;51.92;21.67;;;;;;;;;;5011509;28;96053;-74
2022/01/11 08:36:18;;;;;;;48.00;22.20;;;;;;;;;;4995205;28;95953;-73
2022/01/11 08:38:45;;;;;;;46.70;21.70;;;;;;;;;;5012074;28;93121;-72
2022/01/11 08:41:12;;;;;;;44.15;21.23;;;;;;;;;;5000230;28;93714;-71
2022/01/11 08:43:39;;;;;;;43.40;19.92;;;;;;;;;;5011924;28;92713;-71
2022/01/11 08:46:06;;;;;;;49.40;21.17;;;;;;;;;;4995157;28;96695;-71
2022/01/11 08:48:50;;;;;;;43.40;21.88;;;;;;;;;;5009917;28;97990;-73
2022/01/11 08:51:16;;;;;;;41.20;20.17;;;;;;;;;;4996323;28;92475;-73
2022/01/11 08:53:44;;;;;;;46.38;21.27;;;;;;;;;;5011719;28;95713;-73
2022/01/11 08:56:15;;;;;;;47.65;21.30;;;;;;;;;;4994619;28;96114;-75
2022/01/11 08:58:42;;;;;;;38.72;20.67;;;;;;;;;;4994586;28;93300;-72
2022/01/11 09:01:09;;;;;;;44.03;20.00;;;;;;;;;;4993711;28;95390;-75
2022/01/11 09:03:38;;;;;;;42.85;21.52;;;;;;;;;;4997961;28;95186;-75
2022/01/11 09:06:07;;;;;;;45.10;23.15;;;;;;;;;;5009186;28;95979;-72
2022/01/11 09:08:37;;;;;;;45.58;21.40;;;;;;;;;;5014576;28;95553;-74
2022/01/11 09:11:05;;;;;;;45.58;21.42;;;;;;;;;;5014741;28;93632;-74
2022/01/11 09:13:33;;;;;;;46.63;20.88;;;;;;;;;;5012716;28;95446;-73
2022/01/11 09:16:01;;;;;;;41.22;20.98;;;;;;;;;;5014766;28;95853;-72
2022/01/11 09:18:28;;;;;;;42.45;20.33;;;;;;;;;;5014548;28;92541;-75
2022/01/11 09:20:55;;;;;;;41.65;20.90;;;;;;;;;;5014717;28;96115;-71
2022/01/11 09:23:21;;;;;;;38.35;20.92;;;;;;;;;;5015697;28;93138;-71
2022/01/11 09:25:48;;;;;;;42.55;21.45;;;;;;;;;;5008761;28;93581;-71
2022/01/11 09:28:16;;;;;;;42.92;20.35;;;;;;;;;;4996177;28;96020;-71
2022/01/11 09:30:44;;;;;;;48.80;22.13;;;;;;;;;;4998673;28;93418;-72
2022/01/11 09:33:13;;;;;;;39.03;19.98;;;;;;;;;;4998083;28;95389;-70
2022/01/11 09:35:39;;;;;;;38.47;20.85;;;;;;;;;;4998036;28;95286;-72
2022/01/11 09:38:14;;;;;;;43.47;19.73;;;;;;;;;;4996545;28;94783;-71
2022/01/11 09:40:43;;;;;;;46.63;22.33;;;;;;;;;;4998164;28;97394;-72
2022/01/11 09:43:11;;;;;;;41.38;19.65;;;;;;;;;;5014723;28;95453;-71
2022/01/11 09:45:41;;;;;;;38.95;19.73;;;;;;;;;;4998154;28;92850;-72
2022/01/11 09:48:08;;;;;;;41.17;20.63;;;;;;;;;;5000951;28;95691;-71
2022/01/11 09:50:39;;;;;;;42.88;20.35;;;;;;;;;;4997829;28;92897;-74
2022/01/11 09:53:08;;;;;;;34.75;20.23;;;;;;;;;;4997342;28;95328;-72
2022/01/11 09:55:38;;;;;;;47.40;20.25;;;;;;;;;;4998156;28;95496;-72
2022/01/11 09:58:07;;;;;;;40.60;21.05;;;;;;;;;;4997687;28;92435;-72
2022/01/11 10:00:51;;;;;;;36.05;19.73;;;;;;;;;;4998096;28;92695;-71
2022/01/11 10:03:54;;;;;;;38.22;19.60;;;;;;;;;;4995348;28;98544;-72
2022/01/11 10:06:24;;;;;;;42.58;18.90;;;;;;;;;;4997565;28;93018;-72
2022/01/11 10:08:51;;;;;;;36.28;20.30;;;;;;;;;;5017228;28;95374;-72
2022/01/11 10:11:34;;;;;;;36.70;20.73;;;;;;;;;;4998854;28;92270;-73
2022/01/11 10:14:20;;;;;;;31.08;16.05;;;;;;;;;;4996887;28;94909;-73
2022/01/11 10:16:49;;;;;;;37.65;19.33;;;;;;;;;;4997436;28;96089;-72
2022/01/11 10:19:20;;;;;;;33.35;18.75;;;;;;;;;;5013442;28;92703;-72
2022/01/11 10:21:47;;;;;;;34.70;19.63;;;;;;;;;;4997892;28;96292;-71
2022/01/11 10:24:21;;;;;;;40.17;19.00;;;;;;;;;;4996814;28;95540;-73
2022/01/11 10:26:49;;;;;;;31.73;18.27;;;;;;;;;;4997254;28;92590;-74
2022/01/11 10:29:29;;;;;;;36.30;18.92;;;;;;;;;;4995995;28;94603;-74
2022/01/11 10:32:00;;;;;;;38.38;19.05;;;;;;;;;;5000183;28;94240;-70
2022/01/11 10:34:29;;;;;;;36.15;18.10;;;;;;;;;;4997143;28;95845;-72
2022/01/11 10:36:56;;;;;;;30.42;17.58;;;;;;;;;;4980022;28;95589;-72
2022/01/11 10:39:29;;;;;;;41.08;18.92;;;;;;;;;;4996969;28;93023;-75
2022/01/11 10:41:58;;;;;;;36.13;18.15;;;;;;;;;;4997208;28;95002;-75
2022/01/11 10:44:45;;;;;;;32.95;18.10;;;;;;;;;;5013770;28;95175;-73
2022/01/11 10:47:17;;;;;;;30.48;17.73;;;;;;;;;;4997541;28;92536;-74
2022/01/11 10:49:44;;;;;;;37.55;19.20;;;;;;;;;;5013557;28;94895;-73
2022/01/11 10:52:14;;;;;;;34.42;17.95;;;;;;;;;;4996746;28;95741;-73
2022/01/11 10:54:42;;;;;;;34.83;18.70;;;;;;;;;;4998222;28;94735;-73
2022/01/11 10:57:13;;;;;;;34.08;18.55;;;;;;;;;;4996826;28;95479;-73
2022/01/11 10:59:40;;;;;;;30.15;18.27;;;;;;;;;;4996775;28;92834;-74
2022/01/11 11:02:12;;;;;;;31.42;19.05;;;;;;;;;;5013287;28;95919;-73
2022/01/11 11:04:39;;;;;;;38.35;19.02;;;;;;;;;;4996752;28;96278;-73
2022/01/11 11:07:22;;;;;;;37.55;18.42;;;;;;;;;;4996433;28;92420;-73
2022/01/11 11:09:58;;;;;;;32.92;17.38;;;;;;;;;;4996744;28;94695;-73
2022/01/11 11:12:26;;;;;;;28.35;16.73;;;;;;;;;;4997860;28;93250;-71
2022/01/11 11:15:03;;;;;;;60.08;19.20;;;;;;;;;;4996568;28;92317;-73
2022/01/11 11:17:36;;;;;;;41.63;18.23;;;;;;;;;;5015558;28;95695;-73
2022/01/11 11:20:13;;;;;;;35.90;17.70;;;;;;;;;;4979715;28;94891;-73
2022/01/11 11:22:41;;;;;;;29.88;18.20;;;;;;;;;;4997030;28;96671;-74
2022/01/11 11:25:07;;;;;;;36.92;19.20;;;;;;;;;;4997678;28;92339;-73
2022/01/11 11:27:34;;;;;;;33.22;18.05;;;;;;;;;;4997878;28;92152;-73
2022/01/11 11:30:00;;;;;;;31.75;17.77;;;;;;;;;;4997533;28;93768;-72
2022/01/11 11:32:27;;;;;;;30.27;17.55;;;;;;;;;;4997193;28;93600;-71
2022/01/11 11:34:53;;;;;;;40.72;19.80;;;;;;;;;;4997434;28;92387;-73
2022/01/11 11:37:22;;;;;;;37.75;18.63;;;;;;;;;;4997514;28;92817;-70
2022/01/11 11:39:59;;;;;;;40.08;17.50;;;;;;;;;;5000632;28;93829;-72
2022/01/11 11:42:27;;;;;;;32.45;17.80;;;;;;;;;;4997386;28;93016;-72
2022/01/11 11:44:56;;;;;;;30.90;16.58;;;;;;;;;;4995561;28;96010;-73
2022/01/11 11:47:34;;;;;;;29.95;15.73;;;;;;;;;;4997456;28;92295;-73
2022/01/11 11:50:06;;;;;;;26.73;15.88;;;;;;;;;;4996308;28;93584;-72
2022/01/11 11:52:39;;;;;;;25.90;16.33;;;;;;;;;;4997035;28;93604;-71
2022/01/11 11:55:19;;;;;;;29.45;15.57;;;;;;;;;;4997148;28;92238;-75
2022/01/11 11:57:46;;;;;;;26.40;16.73;;;;;;;;;;4997169;28;92401;-72
2022/01/11 12:00:18;;;;;;;26.77;16.65;;;;;;;;;;4996621;28;93545;-75
2022/01/11 12:02:46;;;;;;;30.50;16.15;;;;;;;;;;5000171;28;91535;-73
2022/01/11 12:05:15;;;;;;;34.22;18.15;;;;;;;;;;4996735;28;93549;-75
2022/01/11 12:07:46;;;;;;;30.40;16.13;;;;;;;;;;4996793;28;92629;-75
2022/01/11 12:10:17;;;;;;;26.50;16.25;;;;;;;;;;4995717;28;94540;-75
2022/01/11 12:12:54;;;;;;;29.35;15.07;;;;;;;;;;4996415;28;93509;-76
2022/01/11 12:15:21;;;;;;;29.88;15.93;;;;;;;;;;4996818;28;92206;-75
2022/01/11 12:17:48;;;;;;;28.50;15.77;;;;;;;;;;4996534;28;93765;-73
2022/01/11 12:20:33;;;;;;;30.35;15.98;;;;;;;;;;4996618;28;93349;-74
2022/01/11 12:22:59;;;;;;;31.17;15.73;;;;;;;;;;5000000;28;92219;-74
2022/01/11 12:25:27;;;;;;;28.20;16.02;;;;;;;;;;4995953;28;93079;-74
2022/01/11 12:28:03;;;;;;;35.20;15.48;;;;;;;;;;4997145;28;91756;-74
2022/01/11 12:30:32;;;;;;;33.88;14.88;;;;;;;;;;4999582;28;93190;-74
2022/01/11 12:33:06;;;;;;;81.20;45.92;;;;;;;;;;5007039;28;94868;-73
2022/01/11 12:35:32;;;;;;;50.70;26.50;;;;;;;;;;5005078;28;94687;-73
2022/01/11 12:38:06;;;;;;;25.55;14.60;;;;;;;;;;5004385;28;96131;-72
2022/01/11 12:40:40;;;;;;;30.55;16.30;;;;;;;;;;5013375;28;93474;-73
2022/01/11 12:43:07;;;;;;;27.45;14.82;;;;;;;;;;5016607;28;92387;-73
2022/01/11 12:45:52;;;;;;;32.85;16.35;;;;;;;;;;5019386;28;93936;-73
2022/01/11 12:48:37;;;;;;;26.65;15.18;;;;;;;;;;5015734;28;92431;-74
2022/01/11 12:51:04;;;;;;;34.97;15.02;;;;;;;;;;5016539;28;93234;-73
2022/01/11 12:53:30;;;;;;;27.52;14.18;;;;;;;;;;5016560;28;93442;-73
2022/01/11 12:55:57;;;;;;;28.52;15.43;;;;;;;;;;5016113;28;92187;-74
2022/01/11 12:58:24;;;;;;;24.58;14.77;;;;;;;;;;5015990;28;93235;-73
2022/01/11 13:00:51;;;;;;;26.50;14.63;;;;;;;;;;5013952;28;95837;-73
2022/01/11 13:03:18;;;;;;;24.20;14.05;;;;;;;;;;5015236;28;92492;-73
2022/01/11 13:05:45;;;;;;;24.65;14.63;;;;;;;;;;5016136;28;92932;-74
2022/01/11 13:08:25;;;;;;;23.48;14.48;;;;;;;;;;5019198;28;93648;-73
2022/01/11 13:10:51;;;;;;;23.60;14.77;;;;;;;;;;5015912;28;94449;-73
2022/01/11 13:13:22;;;;;;;23.65;14.15;;;;;;;;;;5015476;28;93339;-73
2022/01/11 13:15:49;;;;;;;20.70;13.63;;;;;;;;;;5014546;28;92497;-72
2022/01/11 13:18:20;;;;;;;21.02;12.57;;;;;;;;;;5016177;28;92953;-72
2022/01/11 13:20:51;;;;;;;19.75;13.68;;;;;;;;;;5014369;28;94570;-72
2022/01/11 13:23:24;;;;;;;24.50;13.18;;;;;;;;;;5016082;28;93087;-73
2022/01/11 13:25:57;;;;;;;27.38;13.70;;;;;;;;;;5013853;28;94720;-72
2022/01/11 13:28:33;;;;;;;22.35;13.75;;;;;;;;;;5015696;28;93559;-72
2022/01/11 13:31:02;;;;;;;25.92;13.27;;;;;;;;;;5018984;28;92438;-71
2022/01/11 13:33:31;;;;;;;21.80;13.45;;;;;;;;;;5015642;28;93919;-74
2022/01/11 13:35:58;;;;;;;18.55;12.85;;;;;;;;;;5015752;28;92276;-74
2022/01/11 13:38:35;;;;;;;22.63;11.93;;;;;;;;;;5015175;28;94222;-73
2022/01/11 13:41:03;;;;;;;19.83;12.68;;;;;;;;;;5015804;28;94167;-74
2022/01/11 13:43:38;;;;;;;25.55;13.20;;;;;;;;;;5015986;28;91342;-73
2022/01/11 13:46:13;;;;;;;21.95;12.10;;;;;;;;;;5014513;28;92854;-74
2022/01/11 13:48:39;;;;;;;22.05;12.45;;;;;;;;;;5015505;28;93500;-73
2022/01/11 13:51:05;;;;;;;19.50;11.88;;;;;;;;;;5013811;28;94785;-74
2022/01/11 13:53:34;;;;;;;18.45;11.93;;;;;;;;;;5018624;28;95942;-74
2022/01/11 13:56:03;;;;;;;17.88;11.30;;;;;;;;;;5015350;28;92384;-74
2022/01/11 13:58:29;;;;;;;19.05;12.02;;;;;;;;;;5015522;28;93514;-73
2022/01/11 14:00:59;;;;;;;21.17;11.52;;;;;;;;;;5015454;28;93602;-73
2022/01/11 14:03:30;;;;;;;21.55;12.18;;;;;;;;;;5015269;28;92324;-73
2022/01/11 14:05:57;;;;;;;29.63;11.90;;;;;;;;;;5015711;28;93636;-73
2022/01/11 14:08:32;;;;;;;30.40;11.85;;;;;;;;;;5014922;28;93343;-73
2022/01/11 14:11:07;;;;;;;22.67;10.75;;;;;;;;;;5015405;28;92355;-73
2022/01/11 14:13:35;;;;;;;24.17;11.60;;;;;;;;;;5017799;28;95198;-73
2022/01/11 14:16:08;;;;;;;33.15;12.65;;;;;;;;;;5016702;28;94758;-73
2022/01/11 14:18:34;;;;;;;28.05;11.90;;;;;;;;;;5018314;28;95743;-73
2022/01/11 14:21:06;;;;;;;17.33;10.75;;;;;;;;;;5018464;28;93062;-73
2022/01/11 14:23:34;;;;;;;21.17;11.95;;;;;;;;;;5017970;28;92288;-74
2022/01/11 14:26:01;;;;;;;15.10;10.75;;;;;;;;;;5018704;28;93505;-74
2022/01/11 14:28:29;;;;;;;17.67;11.07;;;;;;;;;;5018458;28;93841;-73
2022/01/11 14:30:57;;;;;;;20.55;11.38;;;;;;;;;;5018680;28;92205;-73